createdAt,value
2019-04-07T00:00:02.883Z,92.1
2019-04-07T00:01:03.596Z,90.7
2019-04-07T00:02:03.938Z,91
2019-04-07T00:03:03.890Z,89.6
2019-04-07T00:04:03.457Z,88.9
2019-04-07T00:05:15.089Z,88.2
2019-04-07T00:06:03.317Z,89.1
2019-04-07T00:07:03.752Z,89.3
2019-04-07T00:08:03.181Z,88.9
2019-04-07T00:09:03.077Z,88.6
2019-04-07T00:10:03.427Z,88.4
2019-04-07T00:11:03.614Z,87.9
2019-04-07T00:12:03.327Z,87.7
2019-04-07T00:13:03.196Z,86.5
2019-04-07T00:14:04.085Z,85.4
2019-04-07T00:15:03.863Z,85.4
2019-04-07T00:16:03.502Z,84.7
2019-04-07T00:17:03.047Z,85.6
2019-04-07T00:18:03.596Z,86.8
2019-04-07T00:19:02.910Z,87.2
2019-04-07T00:20:04.375Z,88.2
2019-04-07T00:21:02.912Z,88.4
2019-04-07T00:22:03.312Z,89.1
2019-04-07T00:23:03.456Z,89.3
2019-04-07T00:24:03.325Z,87.9
2019-04-07T00:25:04.242Z,88.9
2019-04-07T00:26:03.040Z,90.3
2019-04-07T00:27:04.404Z,88.9
2019-04-07T00:28:04.268Z,88.9
2019-04-07T00:29:03.399Z,88.2
2019-04-07T00:30:04.216Z,88.4
2019-04-07T00:31:02.799Z,89.6
2019-04-07T00:32:03.762Z,90.7
2019-04-07T00:33:03.779Z,91
2019-04-07T00:34:03.666Z,91.4
2019-04-07T00:35:04.440Z,91
2019-04-07T00:36:04.324Z,91.9
2019-04-07T00:37:03.470Z,90.5
2019-04-07T00:38:03.856Z,89.8
2019-04-07T00:39:04.402Z,89.8
2019-04-07T00:40:03.524Z,91.2
2019-04-07T00:41:03.172Z,91.2
2019-04-07T00:42:03.102Z,92.8
2019-04-07T00:43:03.616Z,92.8
2019-04-07T00:44:03.195Z,94.2
2019-04-07T00:45:03.853Z,94.7
2019-04-07T00:46:03.699Z,93.8
2019-04-07T00:47:03.311Z,93.8
2019-04-07T00:48:03.756Z,94.9
2019-04-07T00:49:03.144Z,94.5
2019-04-07T00:50:03.210Z,94.7
2019-04-07T00:51:03.716Z,94.2
2019-04-07T00:52:03.064Z,96.1
2019-04-07T00:53:02.929Z,93.5
2019-04-07T00:54:02.947Z,95.4
2019-04-07T00:55:03.657Z,94
2019-04-07T00:56:04.136Z,94
2019-04-07T00:57:02.933Z,94.5
2019-04-07T00:58:03.884Z,95.2
2019-04-07T00:59:04.481Z,95.9
2019-04-07T01:00:04.559Z,95.9
2019-04-07T01:01:03.442Z,96.8
2019-04-07T01:02:03.562Z,96.8
2019-04-07T01:03:04.233Z,98.2
2019-04-07T01:04:02.728Z,98.4
2019-04-07T01:05:03.332Z,99.6
2019-04-07T01:06:03.643Z,97.7
2019-04-07T01:07:02.878Z,97.3
2019-04-07T01:08:02.826Z,97.3
2019-04-07T01:09:03.671Z,97.3
2019-04-07T01:10:03.836Z,97.5
2019-04-07T01:11:03.704Z,97.3
2019-04-07T01:12:04.845Z,97.3
2019-04-07T01:13:03.514Z,97
2019-04-07T01:14:03.538Z,98
2019-04-07T01:15:03.549Z,98.9
2019-04-07T01:16:04.129Z,98.2
2019-04-07T01:17:03.863Z,98.7
2019-04-07T01:18:03.074Z,99.1
2019-04-07T01:19:03.611Z,98.9
2019-04-07T01:20:04.143Z,98.9
2019-04-07T01:21:03.989Z,99.4
2019-04-07T01:22:04.087Z,98.7
2019-04-07T01:23:03.049Z,98.4
2019-04-07T01:24:03.554Z,98.4
2019-04-07T01:25:04.134Z,97.3
2019-04-07T01:26:03.777Z,97.3
2019-04-07T01:27:04.201Z,97.7
2019-04-07T01:28:04.436Z,97.7
2019-04-07T01:29:03.332Z,97.3
2019-04-07T01:30:04.816Z,97.7
2019-04-07T01:31:03.633Z,96.6
2019-04-07T01:32:02.831Z,96.1
2019-04-07T01:33:03.495Z,96.1
2019-04-07T01:34:03.475Z,97.5
2019-04-07T01:35:03.514Z,96.6
2019-04-07T01:36:03.627Z,95.4
2019-04-07T01:37:04.440Z,96.3
2019-04-07T01:38:03.262Z,96.6
2019-04-07T01:39:04.158Z,96.6
2019-04-07T01:40:03.425Z,94.7
2019-04-07T01:41:03.337Z,94.2
2019-04-07T01:42:03.692Z,93.8
2019-04-07T01:43:02.887Z,93.8
2019-04-07T01:44:03.731Z,93.8
2019-04-07T01:45:03.639Z,93.8
2019-04-07T01:46:03.984Z,94.2
2019-04-07T01:47:03.677Z,93.8
2019-04-07T01:48:03.045Z,93.8
2019-04-07T01:49:03.251Z,93.8
2019-04-07T01:50:03.303Z,94.2
2019-04-07T01:51:03.227Z,94.5
2019-04-07T01:52:04.388Z,93.5
2019-04-07T01:53:03.732Z,94.2
2019-04-07T01:54:03.909Z,92.8
2019-04-07T01:55:03.979Z,93.3
2019-04-07T01:56:03.677Z,94.2
2019-04-07T01:57:04.338Z,94.2
2019-04-07T01:58:03.335Z,93.5
2019-04-07T01:59:03.921Z,93.5
2019-04-07T02:00:03.606Z,93.3
2019-04-07T02:01:03.541Z,93.3
2019-04-07T02:02:03.709Z,92.8
2019-04-07T02:03:05.005Z,92.6
2019-04-07T02:04:03.042Z,93.8
2019-04-07T02:05:04.424Z,93.8
2019-04-07T02:06:07.008Z,93.3
2019-04-07T02:07:03.113Z,93.3
2019-04-07T02:08:03.679Z,92.6
2019-04-07T02:09:03.482Z,92.6
2019-04-07T02:10:03.129Z,93.8
2019-04-07T02:11:03.375Z,94.7
2019-04-07T02:12:03.668Z,94.7
2019-04-07T02:13:03.420Z,95.6
2019-04-07T02:14:03.866Z,96.3
2019-04-07T02:15:03.201Z,97.5
2019-04-07T02:16:03.863Z,97.5
2019-04-07T02:17:02.870Z,96.6
2019-04-07T02:18:03.833Z,94.9
2019-04-07T02:19:03.823Z,95.6
2019-04-07T02:20:05.362Z,95.2
2019-04-07T02:21:05.464Z,95.4
2019-04-07T02:22:03.789Z,96.1
2019-04-07T02:23:03.556Z,97.5
2019-04-07T02:24:03.809Z,97.5
2019-04-07T02:25:02.883Z,97.5
2019-04-07T02:26:03.784Z,97
2019-04-07T02:27:04.084Z,96.8
2019-04-07T02:28:04.218Z,98.4
2019-04-07T02:29:05.031Z,97.5
2019-04-07T02:30:04.227Z,97.5
2019-04-07T02:31:03.353Z,99.1
2019-04-07T02:32:03.837Z,98
2019-04-07T02:33:03.371Z,98.9
2019-04-07T02:34:03.447Z,98.7
2019-04-07T02:35:03.919Z,99.4
2019-04-07T02:36:31.894Z,99.4
2019-04-07T02:37:04.895Z,101
2019-04-07T02:38:02.846Z,101
2019-04-07T02:39:03.067Z,101.2
2019-04-07T02:40:06.429Z,101.7
2019-04-07T02:41:04.551Z,102.9
2019-04-07T02:42:04.841Z,102.9
2019-04-07T02:43:03.486Z,102.4
2019-04-07T02:44:03.115Z,102.4
2019-04-07T02:45:03.967Z,102.4
2019-04-07T02:46:04.655Z,102.2
2019-04-07T02:47:03.584Z,101.9
2019-04-07T02:48:03.645Z,103.3
2019-04-07T02:49:04.392Z,103.3
2019-04-07T02:50:03.943Z,103.1
2019-04-07T02:51:03.410Z,103.6
2019-04-07T02:52:04.207Z,103.1
2019-04-07T02:53:03.837Z,102.9
2019-04-07T02:54:03.522Z,103.3
2019-04-07T02:55:04.774Z,102.4
2019-04-07T02:56:03.728Z,102.9
2019-04-07T02:57:03.909Z,102.6
2019-04-07T02:58:03.280Z,103.8
2019-04-07T02:59:03.290Z,104
2019-04-07T03:00:04.772Z,104
2019-04-07T03:01:04.306Z,104.7
2019-04-07T03:02:03.146Z,104
2019-04-07T03:03:04.945Z,104.7
2019-04-07T03:04:03.484Z,103.3
2019-04-07T03:05:02.780Z,102.4
2019-04-07T03:06:05.154Z,102.2
2019-04-07T03:07:03.157Z,102.9
2019-04-07T03:08:04.104Z,103.3
2019-04-07T03:09:03.718Z,103.3
2019-04-07T03:10:04.980Z,103.6
2019-04-07T03:11:02.383Z,103.6
2019-04-07T03:12:05.443Z,104.3
2019-04-07T03:13:03.807Z,104.3
2019-04-07T03:14:03.946Z,104.7
2019-04-07T03:15:03.847Z,103.1
2019-04-07T03:16:04.724Z,103.8
2019-04-07T03:17:06.831Z,104.7
2019-04-07T03:18:03.025Z,104.7
2019-04-07T03:19:04.587Z,102.9
2019-04-07T03:20:05.356Z,104
2019-04-07T03:21:03.699Z,103.3
2019-04-07T03:22:03.086Z,103.8
2019-04-07T03:23:03.900Z,102.6
2019-04-07T03:24:04.184Z,101.9
2019-04-07T03:25:04.111Z,101.2
2019-04-07T03:26:02.849Z,101.5
2019-04-07T03:27:04.252Z,101.2
2019-04-07T03:28:03.043Z,99.8
2019-04-07T03:29:03.943Z,99.8
2019-04-07T03:30:06.698Z,99.4
2019-04-07T03:31:07.787Z,98
2019-04-07T03:32:16.435Z,98.9
2019-04-07T03:33:19.041Z,97
2019-04-07T03:34:08.373Z,96.1
2019-04-07T03:35:07.584Z,95.6
2019-04-07T03:36:20.640Z,96.6
2019-04-07T03:37:48.139Z,95.2
2019-04-07T03:38:03.116Z,96.1
2019-04-07T03:39:03.749Z,96.1
2019-04-07T03:40:04.914Z,95.4
2019-04-07T03:41:03.636Z,94.5
2019-04-07T03:42:03.677Z,94.2
2019-04-07T03:43:03.488Z,94
2019-04-07T03:44:03.615Z,94.7
2019-04-07T03:45:04.630Z,95.4
2019-04-07T03:46:03.965Z,96.1
2019-04-07T03:47:03.655Z,96.3
2019-04-07T03:48:04.463Z,95.4
2019-04-07T03:49:04.355Z,93.5
2019-04-07T03:50:04.073Z,92.8
2019-04-07T03:51:03.437Z,91.7
2019-04-07T03:52:05.944Z,91.7
2019-04-07T03:53:03.163Z,91
2019-04-07T03:54:03.218Z,90.5
2019-04-07T03:55:03.127Z,92.4
2019-04-07T03:56:03.657Z,91.2
2019-04-07T03:57:05.097Z,93.3
2019-04-07T03:58:03.914Z,91.2
2019-04-07T03:59:03.821Z,91.2
2019-04-07T04:00:04.268Z,91.2
2019-04-07T04:01:05.428Z,92.1
2019-04-07T04:02:04.833Z,93.3
2019-04-07T04:03:03.822Z,91.7
2019-04-07T04:04:03.797Z,91.4
2019-04-07T04:05:03.688Z,91.2
2019-04-07T04:06:04.594Z,91.7
2019-04-07T04:07:38.360Z,90.7
2019-04-07T04:08:04.336Z,92.1
2019-04-07T04:09:03.489Z,92.4
2019-04-07T04:10:03.706Z,91
2019-04-07T04:11:04.421Z,91.4
2019-04-07T04:12:03.626Z,90.7
2019-04-07T04:13:03.213Z,90
2019-04-07T04:14:03.398Z,91.7
2019-04-07T04:15:03.987Z,92.6
2019-04-07T04:16:03.257Z,92.6
2019-04-07T04:17:04.565Z,92.1
2019-04-07T04:18:03.738Z,93.3
2019-04-07T04:19:02.894Z,93.5
2019-04-07T04:20:04.363Z,91.7
2019-04-07T04:21:03.802Z,92.1
2019-04-07T04:22:04.318Z,90.7
2019-04-07T04:23:04.210Z,91.4
2019-04-07T04:24:04.482Z,92.1
2019-04-07T04:25:03.236Z,92.1
2019-04-07T04:26:02.975Z,92.1
2019-04-07T04:27:03.010Z,92.4
2019-04-07T04:28:05.094Z,92.1
2019-04-07T04:29:04.289Z,93.8
2019-04-07T04:30:03.501Z,94.5
2019-04-07T04:31:04.828Z,94.7
2019-04-07T04:32:03.497Z,95.4
2019-04-07T04:33:04.298Z,96.8
2019-04-07T04:34:03.570Z,98.4
2019-04-07T04:35:03.610Z,99.4
2019-04-07T04:36:04.506Z,98.4
2019-04-07T04:37:04.143Z,98.7
2019-04-07T04:38:04.128Z,96.3
2019-04-07T04:39:03.468Z,97
2019-04-07T04:40:03.733Z,97.3
2019-04-07T04:41:03.384Z,97
2019-04-07T04:42:05.826Z,97.5
2019-04-07T04:43:03.645Z,98
2019-04-07T04:44:04.162Z,98
2019-04-07T04:45:04.550Z,97.3
2019-04-07T04:46:03.627Z,97.5
2019-04-07T04:47:03.269Z,98.2
2019-04-07T04:48:03.014Z,98
2019-04-07T04:49:04.469Z,98.7
2019-04-07T04:50:03.999Z,99.8
2019-04-07T04:51:03.695Z,101.2
2019-04-07T04:52:03.312Z,102.2
2019-04-07T04:53:04.320Z,103.1
2019-04-07T04:54:03.918Z,102.9
2019-04-07T04:55:04.209Z,100.5
2019-04-07T04:56:03.299Z,101.5
2019-04-07T04:57:09.537Z,101.5
2019-04-07T04:58:05.588Z,101.2
2019-04-07T04:59:04.319Z,100.5
2019-04-07T05:00:05.381Z,100.3
2019-04-07T05:01:04.707Z,98.9
2019-04-07T05:02:03.432Z,98.2
2019-04-07T05:03:03.471Z,98.4
2019-04-07T05:04:04.938Z,98.2
2019-04-07T05:05:04.222Z,97.7
2019-04-07T05:06:04.063Z,98.4
2019-04-07T05:07:04.373Z,99.1
2019-04-07T05:08:06.972Z,99.1
2019-04-07T05:09:04.578Z,99.4
2019-04-07T05:10:03.384Z,99.4
2019-04-07T05:11:03.335Z,101.5
2019-04-07T05:12:07.068Z,101.2
2019-04-07T05:13:03.074Z,100.8
2019-04-07T05:14:02.721Z,98.9
2019-04-07T05:15:02.975Z,98.4
2019-04-07T05:16:02.908Z,97.3
2019-04-07T05:17:03.144Z,98
2019-04-07T05:18:03.168Z,96.6
2019-04-07T05:19:04.636Z,98.2
2019-04-07T05:20:03.745Z,99.6
2019-04-07T05:21:04.055Z,98.9
2019-04-07T05:22:02.918Z,99.4
2019-04-07T05:23:04.235Z,99.1
2019-04-07T05:24:04.464Z,98.4
2019-04-07T05:25:04.159Z,98.4
2019-04-07T05:26:03.797Z,97.7
2019-04-07T05:27:03.430Z,98.7
2019-04-07T05:28:03.914Z,100.1
2019-04-07T05:29:03.522Z,98.2
2019-04-07T05:30:04.300Z,98
2019-04-07T05:31:03.677Z,98.4
2019-04-07T05:32:03.142Z,98.4
2019-04-07T05:33:04.639Z,98.2
2019-04-07T05:34:03.048Z,96.8
2019-04-07T05:35:03.371Z,96.3
2019-04-07T05:36:02.614Z,95.6
2019-04-07T05:37:03.572Z,95.9
2019-04-07T05:38:09.439Z,96.6
2019-04-07T05:39:03.001Z,95.6
2019-04-07T05:40:05.128Z,95.9
2019-04-07T05:41:03.200Z,95.9
2019-04-07T05:42:03.728Z,95.9
2019-04-07T05:43:04.878Z,96.3
2019-04-07T05:44:03.695Z,96.6
2019-04-07T05:45:04.261Z,96.1
2019-04-07T05:46:09.190Z,94.9
2019-04-07T05:47:03.442Z,94
2019-04-07T05:48:04.488Z,94.7
2019-04-07T05:49:03.365Z,95.2
2019-04-07T05:50:06.392Z,95.6
2019-04-07T05:51:04.425Z,95.6
2019-04-07T05:52:06.896Z,96.6
2019-04-07T05:53:04.278Z,95.4
2019-04-07T05:54:03.784Z,96.3
2019-04-07T05:55:03.505Z,96.3
2019-04-07T05:56:03.373Z,95.6
2019-04-07T05:57:03.025Z,94.2
2019-04-07T05:58:08.629Z,94.9
2019-04-07T05:59:03.472Z,95.4
2019-04-07T06:00:04.537Z,94.9
2019-04-07T06:01:03.122Z,95.2
2019-04-07T06:02:04.432Z,95.4
2019-04-07T06:03:09.622Z,97.3
2019-04-07T06:04:03.372Z,97
2019-04-07T06:05:04.272Z,97
2019-04-07T06:06:03.827Z,96.6
2019-04-07T06:07:02.627Z,96.6
2019-04-07T06:08:40.081Z,95.2
2019-04-07T06:09:03.250Z,95.2
2019-04-07T06:10:04.446Z,92.8
2019-04-07T06:11:05.137Z,91.9
2019-04-07T06:12:10.828Z,92.1
2019-04-07T06:13:04.286Z,92.1
2019-04-07T06:14:05.000Z,92.6
2019-04-07T06:15:04.417Z,91.7
2019-04-07T06:16:04.332Z,91.9
2019-04-07T06:17:03.186Z,91.7
2019-04-07T06:18:04.211Z,93.1
2019-04-07T06:19:09.117Z,91.7
2019-04-07T06:20:04.057Z,92.1
2019-04-07T06:21:02.992Z,92.8
2019-04-07T06:22:03.642Z,92.1
2019-04-07T06:23:03.645Z,92.1
2019-04-07T06:24:03.606Z,92.6
2019-04-07T06:25:07.333Z,93.5
2019-04-07T06:26:12.656Z,94.2
2019-04-07T06:27:04.242Z,93.3
2019-04-07T06:28:04.278Z,93.1
2019-04-07T06:29:03.744Z,93.1
2019-04-07T06:30:02.936Z,94.7
2019-04-07T06:31:03.412Z,94.7
2019-04-07T06:32:11.288Z,94
2019-04-07T06:33:07.560Z,92.8
2019-04-07T06:34:04.307Z,93.3
2019-04-07T06:35:04.116Z,93.5
2019-04-07T06:36:04.096Z,93.8
2019-04-07T06:37:04.349Z,93.8
2019-04-07T06:38:09.136Z,94.7
2019-04-07T06:39:03.810Z,95.2
2019-04-07T06:40:03.739Z,94.5
2019-04-07T06:41:03.632Z,93.5
2019-04-07T06:42:03.740Z,93.3
2019-04-07T06:43:07.615Z,92.8
2019-04-07T06:44:23.450Z,92.4
2019-04-07T06:45:03.009Z,91.9
2019-04-07T06:46:02.952Z,92.4
2019-04-07T06:47:04.892Z,93.1
2019-04-07T06:48:10.366Z,92.6
2019-04-07T06:49:04.315Z,92.8
2019-04-07T06:50:05.990Z,91.9
2019-04-07T06:51:03.991Z,91
2019-04-07T06:52:05.078Z,89.3
2019-04-07T06:53:03.472Z,89.8
2019-04-07T06:54:02.758Z,88.2
2019-04-07T06:55:03.571Z,88.2
2019-04-07T06:56:06.166Z,88.9
2019-04-07T06:57:07.475Z,89.8
2019-04-07T06:58:08.584Z,89.8
2019-04-07T06:59:03.595Z,90.5
2019-04-07T07:00:03.442Z,90.3
2019-04-07T07:01:03.647Z,91
2019-04-07T07:02:03.310Z,91
2019-04-07T07:03:04.600Z,89.3
2019-04-07T07:04:14.009Z,89.3
2019-04-07T07:05:04.244Z,91.4
2019-04-07T07:06:03.802Z,91
2019-04-07T07:07:07.483Z,91
2019-04-07T07:08:02.376Z,91.7
2019-04-07T07:09:03.474Z,91.4
2019-04-07T07:10:06.767Z,91.2
2019-04-07T07:11:03.270Z,92.4
2019-04-07T07:12:03.761Z,92.4
2019-04-07T07:13:34.504Z,92.4
2019-04-07T07:14:04.457Z,91.4
2019-04-07T07:15:04.840Z,91.4
2019-04-07T07:16:17.290Z,91.7
2019-04-07T07:17:03.709Z,90.7
2019-04-07T07:18:03.690Z,90.7
2019-04-07T07:19:02.899Z,90.5
2019-04-07T07:20:06.945Z,89.3
2019-04-07T07:21:05.245Z,88.9
2019-04-07T07:22:05.790Z,91
2019-04-07T07:23:03.932Z,90.7
2019-04-07T07:24:03.358Z,90.5
2019-04-07T07:25:04.355Z,91.2
2019-04-07T07:26:04.493Z,91.7
2019-04-07T07:27:12.431Z,92.6
2019-04-07T07:28:04.606Z,92.4
2019-04-07T07:29:07.026Z,91.9
2019-04-07T07:30:03.470Z,92.6
2019-04-07T07:31:03.418Z,92.6
2019-04-07T07:32:05.101Z,93.3
2019-04-07T07:33:11.312Z,92.8
2019-04-07T07:34:03.662Z,92.1
2019-04-07T07:35:03.183Z,91.9
2019-04-07T07:36:03.624Z,92.8
2019-04-07T07:37:03.882Z,93.8
2019-04-07T07:38:03.978Z,94
2019-04-07T07:39:14.652Z,94
2019-04-07T07:40:12.074Z,94.5
2019-04-07T07:41:04.995Z,95.4
2019-04-07T07:42:03.793Z,95.6
2019-04-07T07:43:04.510Z,94.5
2019-04-07T07:44:09.875Z,94.7
2019-04-07T07:45:11.090Z,95.4
2019-04-07T07:46:03.406Z,95.6
2019-04-07T07:47:03.411Z,95.2
2019-04-07T07:48:04.410Z,95.6
2019-04-07T07:49:04.406Z,95.6
2019-04-07T07:50:09.060Z,95.2
2019-04-07T07:51:14.629Z,94.9
2019-04-07T07:52:03.729Z,94.9
2019-04-07T07:53:03.819Z,94.7
2019-04-07T07:54:05.451Z,95.2
2019-04-07T07:55:04.119Z,95.9
2019-04-07T07:56:14.317Z,97
2019-04-07T07:57:03.467Z,97
2019-04-07T07:58:03.141Z,98.9
2019-04-07T07:59:05.574Z,98.9
2019-04-07T08:00:08.523Z,99.8
2019-04-07T08:01:04.406Z,100.1
2019-04-07T08:02:03.880Z,100.5
2019-04-07T08:03:03.827Z,101.2
2019-04-07T08:04:03.766Z,101.9
2019-04-07T08:05:03.405Z,101
2019-04-07T08:06:08.592Z,100.8
2019-04-07T08:07:02.945Z,100.3
2019-04-07T08:08:02.749Z,100.5
2019-04-07T08:09:25.126Z,101
2019-04-07T08:10:03.660Z,101
2019-04-07T08:11:03.261Z,99.8
2019-04-07T08:12:03.942Z,99.8
2019-04-07T08:13:09.179Z,101.2
2019-04-07T08:14:03.651Z,101
2019-04-07T08:15:03.370Z,100.8
2019-04-07T08:16:03.938Z,101
2019-04-07T08:17:04.324Z,102.4
2019-04-07T08:18:09.846Z,103.6
2019-04-07T08:19:04.200Z,102.9
2019-04-07T08:20:03.234Z,103.6
2019-04-07T08:21:04.365Z,103.6
2019-04-07T08:22:03.277Z,102.9
2019-04-07T08:23:04.524Z,102.9
2019-04-07T08:24:04.086Z,103.3
2019-04-07T08:25:02.919Z,102.2
2019-04-07T08:26:03.040Z,101.9
2019-04-07T08:27:05.222Z,100.8
2019-04-07T08:28:04.890Z,99.8
2019-04-07T08:29:12.999Z,98.9
2019-04-07T08:30:13.687Z,98.9
2019-04-07T08:31:03.497Z,96.6
2019-04-07T08:32:04.345Z,96.8
2019-04-07T08:33:03.682Z,97.7
2019-04-07T08:34:04.080Z,98.2
2019-04-07T08:35:07.770Z,98.2
2019-04-07T08:36:04.576Z,98.7
2019-04-07T08:37:04.879Z,98.7
2019-04-07T08:38:05.754Z,98.4
2019-04-07T08:39:04.040Z,98.2
2019-04-07T08:40:09.171Z,99.4
2019-04-07T08:41:10.193Z,99.4
2019-04-07T08:42:18.642Z,98.9
2019-04-07T08:43:03.788Z,100.8
2019-04-07T08:44:03.618Z,99.8
2019-04-07T08:45:04.458Z,99.8
2019-04-07T08:46:06.416Z,99.4
2019-04-07T08:47:03.068Z,99.6
2019-04-07T08:48:02.994Z,100.3
2019-04-07T08:49:03.356Z,99.4
2019-04-07T08:50:03.307Z,100.1
2019-04-07T08:51:03.803Z,100.1
2019-04-07T08:52:12.898Z,100.1
2019-04-07T08:53:04.405Z,100.1
2019-04-07T08:54:06.089Z,101.2
2019-04-07T08:55:03.763Z,101.7
2019-04-07T08:56:08.898Z,98.7
2019-04-07T08:57:04.698Z,96.1
2019-04-07T08:58:06.785Z,96.1
2019-04-07T08:59:03.950Z,96.8
2019-04-07T09:00:05.179Z,96.8
2019-04-07T09:01:03.579Z,96.1
2019-04-07T09:02:05.517Z,96.6
2019-04-07T09:03:17.187Z,96.1
2019-04-07T09:04:03.458Z,95.9
2019-04-07T09:05:03.122Z,95.9
2019-04-07T09:06:04.880Z,96.8
2019-04-07T09:07:05.342Z,96.6
2019-04-07T09:08:07.689Z,96.3
2019-04-07T09:09:09.127Z,97.7
2019-04-07T09:10:03.881Z,99.4
2019-04-07T09:11:03.467Z,99.8
2019-04-07T09:12:03.260Z,99.8
2019-04-07T09:13:10.549Z,100.5
2019-04-07T09:14:08.843Z,101.5
2019-04-07T09:15:13.093Z,102.6
2019-04-07T09:16:03.724Z,104
2019-04-07T09:17:04.363Z,103.3
2019-04-07T09:18:03.534Z,102.6
2019-04-07T09:19:09.573Z,103.6
2019-04-07T09:20:10.988Z,103.8
2019-04-07T09:21:04.711Z,103.1
2019-04-07T09:22:03.661Z,101.5
2019-04-07T09:23:03.247Z,101.5
2019-04-07T09:24:04.033Z,100.8
2019-04-07T09:25:10.675Z,101.5
2019-04-07T09:26:03.572Z,102.6
2019-04-07T09:27:03.711Z,103.6
2019-04-07T09:28:03.705Z,104.3
2019-04-07T09:29:04.970Z,104.7
2019-04-07T09:30:11.287Z,106.8
2019-04-07T09:31:04.834Z,106.8
2019-04-07T09:32:03.282Z,107.3
2019-04-07T09:33:03.614Z,107.3
2019-04-07T09:34:03.201Z,107.5
2019-04-07T09:35:07.634Z,107.8
2019-04-07T09:36:03.677Z,106.8
2019-04-07T09:37:04.225Z,106.8
2019-04-07T09:38:03.369Z,106.1
2019-04-07T09:39:04.371Z,105.4
2019-04-07T09:40:06.956Z,105.4
2019-04-07T09:41:03.962Z,105.4
2019-04-07T09:42:04.195Z,106.4
2019-04-07T09:43:04.219Z,106.4
2019-04-07T09:44:05.404Z,105.9
2019-04-07T09:45:13.175Z,105
2019-04-07T09:46:03.758Z,104.7
2019-04-07T09:47:02.756Z,104.3
2019-04-07T09:48:04.263Z,103.3
2019-04-07T09:49:04.720Z,103.1
2019-04-07T09:50:04.930Z,102.4
2019-04-07T09:51:08.793Z,103.3
2019-04-07T09:52:03.407Z,103.8
2019-04-07T09:53:03.778Z,103.6
2019-04-07T09:54:04.203Z,103.6
2019-04-07T09:55:02.900Z,102.2
2019-04-07T09:56:04.752Z,104.3
2019-04-07T09:57:07.545Z,104.3
2019-04-07T09:58:02.910Z,104.3
2019-04-07T09:59:03.970Z,103.1
2019-04-07T10:00:03.027Z,103.3
2019-04-07T10:01:04.745Z,103.3
2019-04-07T10:02:06.898Z,102.4
2019-04-07T10:03:16.420Z,102.4
2019-04-07T10:04:03.091Z,101.5
2019-04-07T10:05:03.378Z,101.5
2019-04-07T10:06:03.219Z,100.5
2019-04-07T10:07:04.816Z,101.5
2019-04-07T10:08:04.223Z,101.5
2019-04-07T10:09:04.292Z,100.3
2019-04-07T10:10:15.918Z,98.7
2019-04-07T10:11:05.103Z,98.7
2019-04-07T10:12:03.407Z,97
2019-04-07T10:13:03.473Z,95.6
2019-04-07T10:14:04.555Z,94.9
2019-04-07T10:15:02.913Z,94
2019-04-07T10:16:11.924Z,93.3
2019-04-07T10:17:03.323Z,93.8
2019-04-07T10:18:04.308Z,94.9
2019-04-07T10:19:03.334Z,93.8
2019-04-07T10:20:05.324Z,93.8
2019-04-07T10:21:03.541Z,93.8
2019-04-07T10:22:03.800Z,95.4
2019-04-07T10:23:03.321Z,97.3
2019-04-07T10:24:03.110Z,97.5
2019-04-07T10:25:04.471Z,97.3
2019-04-07T10:26:04.293Z,96.1
2019-04-07T10:27:03.324Z,95.9
2019-04-07T10:28:03.196Z,95.6
2019-04-07T10:29:04.631Z,96.3
2019-04-07T10:30:05.815Z,95.6
2019-04-07T10:31:04.769Z,95.6
2019-04-07T10:32:04.693Z,95.6
2019-04-07T10:33:03.330Z,95.4
2019-04-07T10:34:03.574Z,95.4
2019-04-07T10:35:03.171Z,94
2019-04-07T10:36:03.269Z,94.2
2019-04-07T10:37:05.250Z,94.9
2019-04-07T10:38:04.460Z,94.2
2019-04-07T10:39:04.570Z,95.2
2019-04-07T10:40:20.834Z,94.9
2019-04-07T10:41:03.192Z,95.2
2019-04-07T10:42:05.581Z,95.2
2019-04-07T10:43:04.203Z,96.8
2019-04-07T10:44:05.018Z,96.8
2019-04-07T10:45:03.786Z,98
2019-04-07T10:46:02.897Z,99.4
2019-04-07T10:47:03.909Z,99.4
2019-04-07T10:48:03.070Z,99.1
2019-04-07T10:49:04.672Z,99.6
2019-04-07T10:50:09.887Z,100.5
2019-04-07T10:51:03.306Z,100.5
2019-04-07T10:52:03.188Z,100.5
2019-04-07T10:53:04.129Z,101.5
2019-04-07T10:54:04.879Z,101.9
2019-04-07T10:55:03.150Z,101.5
2019-04-07T10:56:03.363Z,101
2019-04-07T10:57:05.148Z,101.7
2019-04-07T10:58:05.588Z,99.8
2019-04-07T10:59:04.590Z,99.1
2019-04-07T11:00:04.373Z,98.7
2019-04-07T11:01:04.216Z,98.7
2019-04-07T11:02:03.524Z,98
2019-04-07T11:03:04.923Z,98
2019-04-07T11:04:05.005Z,99.6
2019-04-07T11:05:03.210Z,100.8
2019-04-07T11:06:05.109Z,100.5
2019-04-07T11:07:05.087Z,99.8
2019-04-07T11:08:03.054Z,98.9
2019-04-07T11:09:04.838Z,99.8
2019-04-07T11:10:04.975Z,101.2
2019-04-07T11:11:04.595Z,101.2
2019-04-07T11:12:03.466Z,101.2
2019-04-07T11:13:03.361Z,101.7
2019-04-07T11:14:03.152Z,102.2
2019-04-07T11:15:04.857Z,102.6
2019-04-07T11:16:02.964Z,101.9
2019-04-07T11:17:03.592Z,102.2
2019-04-07T11:18:04.411Z,101.5
2019-04-07T11:19:04.663Z,102.4
2019-04-07T11:20:03.799Z,103.6
2019-04-07T11:21:04.628Z,103.6
2019-04-07T11:22:03.557Z,102.9
2019-04-07T11:23:03.665Z,102.9
2019-04-07T11:24:04.167Z,100.8
2019-04-07T11:25:03.829Z,99.4
2019-04-07T11:26:04.531Z,100.1
2019-04-07T11:27:03.549Z,100.1
2019-04-07T11:28:03.290Z,101.7
2019-04-07T11:29:03.014Z,102.2
2019-04-07T11:30:05.275Z,101.5
2019-04-07T11:31:04.080Z,100.8
2019-04-07T11:32:03.381Z,101
2019-04-07T11:33:03.756Z,100.3
2019-04-07T11:34:04.543Z,100.3
2019-04-07T11:35:05.021Z,101
2019-04-07T11:36:04.170Z,101
2019-04-07T11:37:03.282Z,98.9
2019-04-07T11:38:02.976Z,99.4
2019-04-07T11:39:02.958Z,98.7
2019-04-07T11:40:04.994Z,98.4
2019-04-07T11:41:04.462Z,97.5
2019-04-07T11:42:06.154Z,96.1
2019-04-07T11:43:05.432Z,96.1
2019-04-07T11:44:03.565Z,95.4
2019-04-07T11:45:03.858Z,94
2019-04-07T11:46:05.508Z,94
2019-04-07T11:47:04.697Z,94
2019-04-07T11:48:04.553Z,95.4
2019-04-07T11:49:04.482Z,95.2
2019-04-07T11:50:04.730Z,95.2
2019-04-07T11:51:03.608Z,93.3
2019-04-07T11:52:03.895Z,93.8
2019-04-07T11:53:05.178Z,93.8
2019-04-07T11:54:03.469Z,93.3
2019-04-07T11:55:03.387Z,94.7
2019-04-07T11:56:11.722Z,94
2019-04-07T11:57:05.270Z,94
2019-04-07T11:58:33.173Z,94
2019-04-07T11:59:03.221Z,94
2019-04-07T12:00:03.115Z,94.5
2019-04-07T12:01:04.488Z,94.7
2019-04-07T12:02:09.080Z,95.6
2019-04-07T12:03:06.900Z,95.6
2019-04-07T12:04:03.045Z,95.6
2019-04-07T12:05:06.249Z,93.8
2019-04-07T12:06:03.799Z,93.8
2019-04-07T12:07:04.712Z,94
2019-04-07T12:08:03.161Z,94
2019-04-07T12:09:05.132Z,94
2019-04-07T12:10:04.876Z,93.1
2019-04-07T12:11:06.830Z,93.1
2019-04-07T12:12:06.687Z,94.7
2019-04-07T12:13:05.847Z,94.2
2019-04-07T12:14:04.944Z,93.3
2019-04-07T12:15:05.349Z,93.1
2019-04-07T12:16:03.848Z,93.8
2019-04-07T12:17:13.760Z,92.8
2019-04-07T12:18:17.830Z,92.4
2019-04-07T12:19:04.542Z,93.1
2019-04-07T12:20:06.160Z,91.9
2019-04-07T12:21:08.882Z,91.9
2019-04-07T12:22:14.455Z,91
2019-04-07T12:23:05.945Z,90.7
2019-04-07T12:24:03.642Z,90.5
2019-04-07T12:25:06.930Z,91.2
2019-04-07T12:26:07.585Z,89.8
2019-04-07T12:27:04.621Z,90.5
2019-04-07T12:28:03.693Z,88.4
2019-04-07T12:29:03.000Z,88.2
2019-04-07T12:30:05.567Z,89.1
2019-04-07T12:31:03.611Z,89.8
2019-04-07T12:32:02.698Z,89.8
2019-04-07T12:33:10.003Z,89.8
2019-04-07T12:34:05.106Z,90.3
2019-04-07T12:35:06.066Z,90.7
2019-04-07T12:36:03.494Z,91.2
2019-04-07T12:37:08.906Z,92.4
2019-04-07T12:38:05.362Z,93.3
2019-04-07T12:39:04.268Z,92.8
2019-04-07T12:40:05.464Z,93.3
2019-04-07T12:41:24.298Z,93.3
2019-04-07T12:42:08.892Z,95.4
2019-04-07T12:43:04.667Z,95.4
2019-04-07T12:44:04.718Z,95.9
2019-04-07T12:45:05.164Z,95.9
2019-04-07T12:46:03.826Z,94.5
2019-04-07T12:47:03.441Z,94.7
2019-04-07T12:48:03.564Z,95.4
2019-04-07T12:49:09.882Z,96.8
2019-04-07T12:50:02.964Z,96.6
2019-04-07T12:51:03.616Z,96.3
2019-04-07T12:52:03.006Z,96.6
2019-04-07T12:53:08.133Z,97.5
2019-04-07T12:54:10.496Z,97.3
2019-04-07T12:55:04.881Z,96.6
2019-04-07T12:56:03.343Z,96.3
2019-04-07T12:57:10.559Z,96.1
2019-04-07T12:58:08.734Z,96.8
2019-04-07T12:59:04.524Z,97.3
2019-04-07T13:00:03.455Z,97.3
2019-04-07T13:01:21.155Z,97
2019-04-07T13:02:09.419Z,97
2019-04-07T13:03:04.748Z,96.3
2019-04-07T13:04:05.747Z,96.6
2019-04-07T13:05:08.830Z,96.8
2019-04-07T13:06:10.891Z,96.3
2019-04-07T13:07:03.856Z,96.8
2019-04-07T13:08:03.336Z,96.8
2019-04-07T13:09:04.180Z,97
2019-04-07T13:10:08.353Z,97
2019-04-07T13:11:33.707Z,97
2019-04-07T13:12:04.484Z,95.4
2019-04-07T13:13:04.126Z,95.4
2019-04-07T13:14:10.199Z,96.6
2019-04-07T13:15:03.776Z,96.8
2019-04-07T13:16:04.776Z,96.3
2019-04-07T13:17:05.510Z,95.9